Time;durP1;ratioP1;P1;durP2;ratioP2;P2;SDS_P1;SDS_P2;PMS_P1;PMS_P2;Temp;Humidity;BMP_temperature;BMP_pressure;BME280_temperature;BME280_humidity;BME280_pressure;Samples;Min_cycle;Max_cycle;Signal;HPM_P1;HPM_P2
2023/03/01 00:01:01;;;;;;;5.13;3.30;;;-0.60;99.90;;;;;;5026567;28;20292;-63
2023/03/01 00:03:28;;;;;;;6.83;2.90;;;-0.60;99.90;;;;;;5030705;28;20323;-63
2023/03/01 00:05:54;;;;;;;7.37;3.63;;;-0.60;99.90;;;;;;5038491;28;20202;-63
2023/03/01 00:08:21;;;;;;;5.07;3.07;;;-0.70;99.90;;;;;;5040975;28;20883;-63
2023/03/01 00:10:48;;;;;;;4.40;3.13;;;-0.70;99.90;;;;;;5033109;28;20198;-63
2023/03/01 00:13:15;;;;;;;5.13;3.40;;;-0.70;99.90;;;;;;5004958;28;21353;-63
2023/03/01 00:15:43;;;;;;;5.57;3.20;;;-0.80;99.90;;;;;;5031485;28;20202;-63
2023/03/01 00:18:11;;;;;;;5.47;3.80;;;-0.80;99.90;;;;;;5026211;28;20230;-63
2023/03/01 00:20:38;;;;;;;5.93;3.47;;;-0.90;99.90;;;;;;5039080;28;20217;-63
2023/03/01 00:23:05;;;;;;;5.03;3.10;;;-1.00;99.90;;;;;;5033964;28;20222;-63
2023/03/01 00:25:31;;;;;;;5.30;2.97;;;-0.90;99.90;;;;;;5027080;28;20235;-63
2023/03/01 00:27:58;;;;;;;5.13;2.83;;;-0.50;99.90;;;;;;5014756;28;20252;-63
2023/03/01 00:30:25;;;;;;;6.43;3.23;;;-0.80;99.90;;;;;;5027903;28;20671;-63
2023/03/01 00:32:52;;;;;;;5.10;3.23;;;-0.80;99.90;;;;;;5033836;28;20211;-62
2023/03/01 00:35:20;;;;;;;6.10;2.93;;;-0.70;99.90;;;;;;5036098;28;20213;-63
2023/03/01 00:37:47;;;;;;;4.73;2.90;;;-0.60;99.90;;;;;;5046244;28;20783;-62
2023/03/01 00:40:16;;;;;;;4.33;3.17;;;-0.60;99.90;;;;;;5024235;28;20255;-63
2023/03/01 00:42:43;;;;;;;5.60;3.23;;;-0.60;99.90;;;;;;5043357;28;20198;-63
2023/03/01 00:45:10;;;;;;;4.97;2.83;;;-0.80;99.90;;;;;;5007298;28;20208;-62
2023/03/01 00:47:37;;;;;;;4.33;2.83;;;-0.90;99.90;;;;;;5024433;28;20205;-63
2023/03/01 00:50:04;;;;;;;3.60;2.80;;;-0.90;99.90;;;;;;5019077;28;20208;-63
2023/03/01 00:52:32;;;;;;;4.57;2.60;;;-0.90;99.90;;;;;;5034413;28;20212;-62
2023/03/01 00:54:59;;;;;;;4.73;3.07;;;-0.90;99.90;;;;;;5027502;28;20224;-63
2023/03/01 00:57:26;;;;;;;4.43;2.87;;;-0.80;99.90;;;;;;5035954;28;20804;-63
2023/03/01 00:59:53;;;;;;;4.77;3.00;;;-0.90;99.90;;;;;;5009429;28;20224;-63
2023/03/01 01:02:20;;;;;;;7.57;3.57;;;-1.00;99.90;;;;;;5026190;28;20205;-63
2023/03/01 01:04:47;;;;;;;5.40;3.57;;;-1.00;99.90;;;;;;5028341;28;20675;-62
2023/03/01 01:07:14;;;;;;;6.50;3.97;;;-0.90;99.90;;;;;;5035337;28;20201;-63
2023/03/01 01:09:42;;;;;;;6.27;4.03;;;-0.90;99.90;;;;;;5035788;28;20219;-63
2023/03/01 01:12:09;;;;;;;8.63;4.00;;;-0.90;99.90;;;;;;5026705;28;20216;-62
2023/03/01 01:14:36;;;;;;;5.57;3.43;;;-0.90;99.90;;;;;;5010791;28;21033;-63
2023/03/01 01:17:03;;;;;;;8.40;4.07;;;-0.90;99.90;;;;;;5026571;28;20192;-63
2023/03/01 01:19:30;;;;;;;5.53;3.40;;;-0.90;99.90;;;;;;5020517;28;20254;-63
2023/03/01 01:21:57;;;;;;;4.73;3.20;;;-0.90;99.90;;;;;;5034865;28;20200;-63
2023/03/01 01:24:24;;;;;;;7.27;3.97;;;-0.90;99.90;;;;;;5040410;28;20201;-63
2023/03/01 01:26:52;;;;;;;4.23;2.93;;;-0.90;99.90;;;;;;5031894;28;20209;-63
2023/03/01 01:29:19;;;;;;;5.60;3.53;;;-0.90;99.90;;;;;;5039116;28;20225;-63
2023/03/01 01:31:46;;;;;;;7.60;3.60;;;-0.90;99.90;;;;;;5014478;28;20208;-63
2023/03/01 01:34:16;;;;;;;5.13;3.37;;;-1.00;99.90;;;;;;5034236;28;20312;-63
2023/03/01 01:36:43;;;;;;;5.63;3.20;;;-1.10;99.90;;;;;;5028107;28;20740;-63
2023/03/01 01:39:12;;;;;;;5.53;3.70;;;-1.10;99.90;;;;;;5035702;28;20220;-63
2023/03/01 01:41:41;;;;;;;8.77;3.80;;;-1.00;99.90;;;;;;5042284;28;20194;-63
2023/03/01 01:44:15;;;;;;;5.20;3.70;;;-1.00;99.90;;;;;;5027987;28;20280;-63
2023/03/01 01:46:45;;;;;;;7.73;4.60;;;-1.10;99.90;;;;;;5011867;28;20212;-62
2023/03/01 01:49:20;;;;;;;5.60;3.80;;;-1.00;99.90;;;;;;5028184;28;20202;-62
2023/03/01 01:51:49;;;;;;;8.73;4.23;;;-1.10;99.90;;;;;;5026671;28;20638;-64
2023/03/01 01:54:20;;;;;;;5.80;4.10;;;-1.10;99.90;;;;;;5039439;28;20197;-62
2023/03/01 01:56:53;;;;;;;8.47;3.50;;;-0.90;99.90;;;;;;5035198;28;20201;-63
2023/03/01 01:59:24;;;;;;;10.37;4.27;;;-1.00;99.90;;;;;;5031664;28;20223;-63
2023/03/01 02:01:51;;;;;;;6.20;3.70;;;-1.10;99.90;;;;;;5008553;28;20209;-63
2023/03/01 02:04:18;;;;;;;6.13;4.20;;;-1.10;99.90;;;;;;5032189;28;20205;-63
2023/03/01 02:06:52;;;;;;;7.10;4.17;;;-1.10;99.90;;;;;;5029123;28;21190;-62
2023/03/01 02:09:21;;;;;;;8.20;4.03;;;-1.10;99.90;;;;;;5025313;28;20680;-63
2023/03/01 02:11:48;;;;;;;6.87;3.60;;;-1.20;99.90;;;;;;5037580;28;20208;-62
2023/03/01 02:14:16;;;;;;;7.30;4.07;;;-1.10;99.90;;;;;;5026567;28;20223;-63
2023/03/01 02:16:45;;;;;;;6.17;4.17;;;-1.20;99.90;;;;;;5008767;28;20208;-63
2023/03/01 02:19:26;;;;;;;6.60;4.07;;;-1.00;99.90;;;;;;5045071;28;20231;-63
2023/03/01 02:22:01;;;;;;;5.03;3.67;;;-1.10;99.90;;;;;;5026111;28;20227;-63
2023/03/01 02:24:36;;;;;;;6.23;4.27;;;-1.10;99.90;;;;;;5040926;28;20728;-63
2023/03/01 02:27:04;;;;;;;7.00;4.57;;;-1.20;99.90;;;;;;5044066;28;20205;-63
2023/03/01 02:29:33;;;;;;;6.50;4.37;;;-1.20;99.90;;;;;;5029451;28;20220;-63
2023/03/01 02:32:02;;;;;;;5.93;4.37;;;-1.20;99.90;;;;;;5039952;28;20200;-63
2023/03/01 02:34:30;;;;;;;10.33;4.43;;;-1.10;99.90;;;;;;4995258;28;20204;-63
2023/03/01 02:37:01;;;;;;;5.87;4.00;;;-1.10;99.90;;;;;;5029751;28;20208;-63
2023/03/01 02:39:31;;;;;;;9.30;4.33;;;-1.10;99.90;;;;;;5039329;28;20226;-62
2023/03/01 02:41:58;;;;;;;8.77;4.30;;;-1.20;99.90;;;;;;5041297;28;20206;-63
2023/03/01 02:44:25;;;;;;;5.77;3.87;;;-1.20;99.90;;;;;;5021069;28;20354;-63
2023/03/01 02:46:56;;;;;;;7.50;4.17;;;-1.30;99.90;;;;;;5025957;28;20791;-62
2023/03/01 02:49:26;;;;;;;6.23;4.23;;;-1.30;99.90;;;;;;4999107;28;20228;-63
2023/03/01 02:52:29;;;;;;;6.27;4.07;;;-1.30;99.90;;;;;;5019034;28;20740;-62
2023/03/01 02:55:02;;;;;;;5.37;3.90;;;-1.40;99.90;;;;;;5029146;28;20205;-63
2023/03/01 02:57:30;;;;;;;6.30;3.63;;;-1.40;99.90;;;;;;5035494;28;21111;-62
2023/03/01 03:00:00;;;;;;;9.47;4.00;;;-1.40;99.90;;;;;;5024954;28;20264;-62
2023/03/01 03:02:36;;;;;;;4.93;3.80;;;-1.30;99.90;;;;;;5038321;28;20197;-63
2023/03/01 03:05:08;;;;;;;4.40;3.63;;;-1.30;99.90;;;;;;5006395;28;20212;-63
2023/03/01 03:07:35;;;;;;;7.97;3.80;;;-1.30;99.90;;;;;;5020135;28;20201;-63
2023/03/01 03:10:03;;;;;;;5.13;3.73;;;-1.30;99.90;;;;;;5023803;28;20201;-62
2023/03/01 03:12:29;;;;;;;4.57;3.13;;;-1.30;99.90;;;;;;5039353;28;20673;-62
2023/03/01 03:14:56;;;;;;;7.00;4.07;;;-1.20;99.90;;;;;;5020748;28;20210;-63
2023/03/01 03:17:23;;;;;;;6.87;3.77;;;-1.20;99.90;;;;;;5034054;28;20217;-63
2023/03/01 03:19:51;;;;;;;7.67;3.40;;;-1.30;99.90;;;;;;5004007;28;20228;-63
2023/03/01 03:22:18;;;;;;;5.63;4.13;;;-1.40;99.90;;;;;;5017430;28;20212;-63
2023/03/01 03:24:45;;;;;;;5.50;3.50;;;-1.40;99.90;;;;;;4999658;28;21846;-63
2023/03/01 03:27:12;;;;;;;5.90;3.87;;;-1.40;99.90;;;;;;5020339;28;20205;-63
2023/03/01 03:29:38;;;;;;;4.07;2.83;;;-1.40;99.90;;;;;;5037460;28;20198;-62
2023/03/01 03:32:05;;;;;;;6.10;3.27;;;-1.40;99.90;;;;;;5017390;28;20206;-63
2023/03/01 03:34:32;;;;;;;3.90;2.93;;;-1.40;99.90;;;;;;5037768;28;20923;-63
2023/03/01 03:37:00;;;;;;;4.53;3.07;;;-1.50;99.90;;;;;;4999783;28;20215;-62
2023/03/01 03:39:28;;;;;;;4.53;3.13;;;-1.60;99.90;;;;;;5026536;28;20874;-63
2023/03/01 03:41:55;;;;;;;3.57;2.80;;;-1.60;99.90;;;;;;5010709;28;20201;-63
2023/03/01 03:44:22;;;;;;;4.77;2.97;;;-1.60;99.90;;;;;;5038366;28;20208;-63
2023/03/01 03:46:49;;;;;;;6.30;3.33;;;-1.60;99.90;;;;;;5026073;28;20296;-63
2023/03/01 03:49:16;;;;;;;3.87;2.93;;;-1.60;99.90;;;;;;5041061;28;20205;-63
2023/03/01 03:51:42;;;;;;;5.47;3.07;;;-1.50;99.90;;;;;;5011819;28;20205;-63
2023/03/01 03:54:10;;;;;;;4.83;3.40;;;-1.60;99.90;;;;;;5021503;28;20205;-63
2023/03/01 03:56:37;;;;;;;4.60;3.17;;;-1.60;99.90;;;;;;5024961;28;21081;-63
2023/03/01 03:59:05;;;;;;;11.47;3.60;;;-1.70;99.90;;;;;;5024916;28;20228;-63
2023/03/01 04:01:32;;;;;;;5.30;3.60;;;-1.60;99.90;;;;;;5035188;28;20713;-63
2023/03/01 04:04:03;;;;;;;3.93;3.37;;;-1.70;99.90;;;;;;5039847;28;20706;-62
2023/03/01 04:06:30;;;;;;;6.37;3.50;;;-1.60;99.90;;;;;;5010357;28;20250;-63
2023/03/01 04:09:01;;;;;;;6.50;3.40;;;-1.60;99.90;;;;;;5012107;28;20551;-63
2023/03/01 04:11:30;;;;;;;4.73;3.60;;;-1.60;99.90;;;;;;4998106;28;20916;-62
2023/03/01 04:13:59;;;;;;;6.40;3.40;;;-1.70;99.90;;;;;;5018921;28;20212;-63
2023/03/01 04:16:27;;;;;;;4.30;3.30;;;-1.80;99.90;;;;;;5016843;28;20366;-63
2023/03/01 04:18:54;;;;;;;6.33;3.87;;;-1.80;99.90;;;;;;5030201;28;20241;-63
2023/03/01 04:21:21;;;;;;;5.60;3.20;;;-1.70;99.90;;;;;;5005682;28;20235;-62
2023/03/01 04:23:52;;;;;;;5.37;3.73;;;-1.80;99.90;;;;;;5020263;28;20220;-63
2023/03/01 04:26:19;;;;;;;5.17;3.53;;;-1.80;99.90;;;;;;5031303;28;20362;-62
2023/03/01 04:28:49;;;;;;;5.30;3.33;;;-1.80;99.90;;;;;;5006409;28;20708;-63
2023/03/01 04:31:20;;;;;;;5.47;3.20;;;-1.90;99.90;;;;;;5027965;28;20193;-63
2023/03/01 04:33:51;;;;;;;4.07;3.10;;;-1.90;99.90;;;;;;5024919;28;20689;-63
2023/03/01 04:36:19;;;;;;;4.50;3.30;;;-1.90;99.90;;;;;;5040065;28;20263;-63
2023/03/01 04:38:47;;;;;;;7.07;3.87;;;-1.80;99.90;;;;;;4995990;28;20959;-63
2023/03/01 04:41:16;;;;;;;5.73;3.73;;;-1.70;99.90;;;;;;5019792;28;20274;-63
2023/03/01 04:43:43;;;;;;;7.57;2.90;;;-1.70;99.90;;;;;;5021724;28;20211;-63
2023/03/01 04:46:13;;;;;;;7.00;3.37;;;-1.80;99.90;;;;;;5034835;28;20200;-63
2023/03/01 04:48:42;;;;;;;6.20;3.93;;;-1.80;99.90;;;;;;5016572;28;20228;-63
2023/03/01 04:51:08;;;;;;;8.63;4.03;;;-1.80;99.90;;;;;;5035708;28;20311;-63
2023/03/01 04:53:37;;;;;;;7.20;3.77;;;-1.80;99.90;;;;;;5006561;28;20563;-62
2023/03/01 04:56:04;;;;;;;3.63;3.10;;;-1.90;99.90;;;;;;5026500;28;20196;-62
2023/03/01 04:58:31;;;;;;;4.73;2.97;;;-1.90;99.90;;;;;;5031534;28;20784;-63
2023/03/01 05:00:57;;;;;;;4.77;3.23;;;-1.90;99.90;;;;;;5037282;28;20228;-62
2023/03/01 05:03:26;;;;;;;4.27;3.33;;;-1.90;99.90;;;;;;5023296;28;20210;-63
2023/03/01 05:05:53;;;;;;;3.80;2.97;;;-1.90;99.90;;;;;;5011811;28;20204;-62
2023/03/01 05:08:20;;;;;;;3.03;2.33;;;-1.90;99.90;;;;;;5038627;28;20207;-62
2023/03/01 05:10:50;;;;;;;5.97;3.00;;;-2.00;99.90;;;;;;4993016;28;20213;-63
2023/03/01 05:13:20;;;;;;;4.43;2.97;;;-2.00;99.90;;;;;;5040046;28;20197;-62
2023/03/01 05:15:48;;;;;;;4.80;2.63;;;-1.90;99.90;;;;;;5021754;28;20695;-64
2023/03/01 05:18:15;;;;;;;4.47;2.70;;;-2.00;99.90;;;;;;5026120;28;20218;-62
2023/03/01 05:20:44;;;;;;;4.20;2.53;;;-2.00;99.90;;;;;;5004376;28;20228;-63
2023/03/01 05:23:11;;;;;;;3.27;2.40;;;-2.00;99.90;;;;;;5034899;28;20217;-62
2023/03/01 05:25:39;;;;;;;5.23;3.17;;;-2.20;99.90;;;;;;5005650;28;20215;-62
2023/03/01 05:28:09;;;;;;;4.07;2.67;;;-2.10;99.90;;;;;;5031238;28;20232;-63
2023/03/01 05:30:38;;;;;;;4.10;2.47;;;-2.10;99.90;;;;;;5018754;28;20233;-63
2023/03/01 05:33:10;;;;;;;3.93;3.30;;;-2.10;99.90;;;;;;5034263;28;20232;-62
2023/03/01 05:35:37;;;;;;;3.60;2.80;;;-2.40;99.90;;;;;;5012938;28;20301;-64
2023/03/01 05:38:05;;;;;;;3.43;2.50;;;-2.40;99.90;;;;;;5036719;28;20221;-62
2023/03/01 05:40:34;;;;;;;6.63;3.40;;;-2.60;99.90;;;;;;5002522;28;20232;-62
2023/03/01 05:43:01;;;;;;;4.03;3.00;;;-2.60;99.90;;;;;;5032506;28;20275;-62
2023/03/01 05:45:28;;;;;;;5.40;3.07;;;-2.80;99.90;;;;;;5032200;28;20675;-63
2023/03/01 05:47:55;;;;;;;6.80;4.57;;;-2.80;99.90;;;;;;5011077;28;20229;-62
2023/03/01 05:50:25;;;;;;;6.60;4.10;;;-2.80;99.90;;;;;;5026551;28;20201;-62
2023/03/01 05:52:57;;;;;;;8.73;3.30;;;-2.80;99.90;;;;;;5022485;28;20212;-63
2023/03/01 05:55:25;;;;;;;5.53;3.27;;;-2.90;99.90;;;;;;5005235;28;20213;-62
2023/03/01 05:57:52;;;;;;;6.17;4.57;;;-3.10;99.90;;;;;;5029718;28;20204;-62
2023/03/01 06:00:22;;;;;;;6.00;3.63;;;-3.10;99.90;;;;;;5027992;28;20228;-63
2023/03/01 06:02:49;;;;;;;6.80;3.83;;;-3.00;99.90;;;;;;5027349;28;20713;-63
2023/03/01 06:05:16;;;;;;;4.70;3.50;;;-3.00;99.90;;;;;;5015980;28;20711;-62
2023/03/01 06:07:43;;;;;;;6.90;3.77;;;-2.90;99.90;;;;;;5015301;28;20330;-63
2023/03/01 06:10:12;;;;;;;4.03;3.20;;;-2.70;99.90;;;;;;4995841;28;23166;-63
2023/03/01 06:12:42;;;;;;;6.30;3.37;;;-2.50;99.90;;;;;;5028030;28;20618;-62
2023/03/01 06:15:11;;;;;;;5.67;3.50;;;-2.30;99.90;;;;;;5037402;28;20213;-62
2023/03/01 06:17:40;;;;;;;5.43;3.07;;;-2.10;99.90;;;;;;5028294;28;20220;-63
2023/03/01 06:20:10;;;;;;;6.13;3.93;;;-2.10;99.90;;;;;;5028662;28;20225;-63
2023/03/01 06:22:36;;;;;;;4.90;3.50;;;-2.00;99.90;;;;;;5028917;28;20232;-63
2023/03/01 06:25:04;;;;;;;6.33;4.37;;;-2.00;99.90;;;;;;5021104;28;20203;-62
2023/03/01 06:27:31;;;;;;;5.83;3.43;;;-2.00;99.90;;;;;;5041601;28;20204;-62
2023/03/01 06:29:59;;;;;;;3.57;2.60;;;-2.00;99.90;;;;;;5043814;28;20808;-62
2023/03/01 06:32:26;;;;;;;8.60;2.77;;;-2.00;99.90;;;;;;5028005;28;20216;-62
2023/03/01 06:34:53;;;;;;;4.80;3.47;;;-2.00;99.90;;;;;;5039973;28;20939;-62
2023/03/01 06:37:20;;;;;;;11.13;3.27;;;-2.10;99.90;;;;;;5010152;28;21054;-62
2023/03/01 06:39:47;;;;;;;4.60;3.20;;;-2.10;99.90;;;;;;5043460;28;20229;-62
2023/03/01 06:42:13;;;;;;;4.07;2.83;;;-2.00;99.90;;;;;;5012044;28;20221;-62
2023/03/01 06:44:40;;;;;;;3.63;2.90;;;-2.10;99.90;;;;;;5051598;28;20197;-63
2023/03/01 06:47:09;;;;;;;4.10;3.10;;;-2.10;99.90;;;;;;5034100;28;20303;-62
2023/03/01 06:49:36;;;;;;;6.70;3.00;;;-2.10;99.90;;;;;;5010795;28;20220;-63
2023/03/01 06:52:03;;;;;;;4.97;3.30;;;-2.10;99.90;;;;;;5016766;28;20236;-63
2023/03/01 06:54:30;;;;;;;7.50;3.90;;;-1.90;99.90;;;;;;5003992;28;20228;-63
2023/03/01 06:56:57;;;;;;;11.33;3.80;;;-1.80;99.90;;;;;;5006312;28;21935;-63
2023/03/01 06:59:23;;;;;;;10.93;3.77;;;-1.90;99.90;;;;;;5027285;28;20204;-63
2023/03/01 07:01:50;;;;;;;10.63;5.00;;;-1.90;99.90;;;;;;5022676;28;20236;-63
2023/03/01 07:04:18;;;;;;;13.88;7.10;;;-1.80;99.90;;;;;;5026061;28;20465;-63
2023/03/01 07:06:45;;;;;;;8.67;5.17;;;-1.80;99.90;;;;;;5001796;28;20232;-63
2023/03/01 07:09:12;;;;;;;11.10;5.27;;;-1.70;99.90;;;;;;5037716;28;20236;-63
2023/03/01 07:11:38;;;;;;;6.50;4.80;;;-1.70;99.90;;;;;;5040978;28;20208;-63
2023/03/01 07:14:06;;;;;;;8.40;4.77;;;-1.60;99.90;;;;;;5017540;28;20208;-63
2023/03/01 07:16:33;;;;;;;7.33;4.77;;;-1.40;99.90;;;;;;5032275;28;20217;-63
2023/03/01 07:19:00;;;;;;;8.97;5.13;;;-1.40;99.90;;;;;;5028801;28;20217;-63
2023/03/01 07:21:28;;;;;;;8.37;5.10;;;-1.40;99.90;;;;;;5021578;28;20237;-62
2023/03/01 07:23:55;;;;;;;7.40;4.87;;;-1.30;99.90;;;;;;5043983;28;20201;-63
2023/03/01 07:26:21;;;;;;;11.00;5.37;;;-1.30;99.90;;;;;;5050286;28;20208;-63
2023/03/01 07:28:48;;;;;;;107.93;43.53;;;-1.20;99.90;;;;;;5011009;28;21096;-63
2023/03/01 07:31:15;;;;;;;61.27;26.47;;;-1.20;99.90;;;;;;5048250;28;20199;-63
2023/03/01 07:33:43;;;;;;;116.93;36.50;;;-1.30;99.90;;;;;;5034054;28;20201;-62
2023/03/01 07:36:10;;;;;;;103.73;28.50;;;-1.20;99.90;;;;;;5030798;28;20582;-62
2023/03/01 07:38:38;;;;;;;34.70;12.40;;;-1.20;99.90;;;;;;5034395;28;20216;-62
2023/03/01 07:41:06;;;;;;;29.00;8.20;;;-1.10;99.90;;;;;;5048051;28;20773;-62
2023/03/01 07:43:33;;;;;;;13.40;5.67;;;-1.10;99.90;;;;;;5038598;28;20213;-63
2023/03/01 07:46:01;;;;;;;11.47;5.20;;;-1.00;99.90;;;;;;5018321;28;20242;-63
2023/03/01 07:48:28;;;;;;;6.30;4.10;;;-0.90;99.90;;;;;;5048348;28;20194;-63
2023/03/01 07:50:55;;;;;;;5.30;3.03;;;-1.00;99.90;;;;;;5029657;28;20424;-63
2023/03/01 07:53:21;;;;;;;7.93;4.33;;;-0.90;99.90;;;;;;5034786;28;20215;-63
2023/03/01 07:55:49;;;;;;;9.10;4.80;;;-0.80;99.90;;;;;;5042824;28;20205;-63
2023/03/01 07:58:16;;;;;;;44.03;15.43;;;-0.80;99.90;;;;;;5032992;28;20206;-63
2023/03/01 08:00:43;;;;;;;33.00;11.27;;;-0.80;99.90;;;;;;5012164;28;20225;-63
2023/03/01 08:03:10;;;;;;;12.53;4.67;;;-0.70;99.90;;;;;;5045298;28;20425;-63
2023/03/01 08:05:37;;;;;;;8.70;4.30;;;-0.70;99.90;;;;;;5036124;28;20205;-63
2023/03/01 08:08:05;;;;;;;5.13;3.50;;;-0.60;99.90;;;;;;5032881;28;20210;-63
2023/03/01 08:10:31;;;;;;;10.43;6.30;;;-0.60;99.90;;;;;;5046015;28;20205;-63
2023/03/01 08:12:59;;;;;;;9.77;5.90;;;-0.50;99.90;;;;;;5041085;28;20193;-63
2023/03/01 08:15:26;;;;;;;7.80;4.67;;;-0.50;99.90;;;;;;5004048;28;20221;-63
2023/03/01 08:17:53;;;;;;;7.23;5.10;;;-0.40;99.90;;;;;;5045369;28;20212;-63
2023/03/01 08:20:20;;;;;;;7.67;4.53;;;-0.40;99.90;;;;;;5029317;28;20228;-63
2023/03/01 08:22:47;;;;;;;6.70;4.47;;;-0.40;99.90;;;;;;5042066;28;20219;-63
2023/03/01 08:25:14;;;;;;;7.20;4.40;;;-0.30;99.90;;;;;;5029399;28;20217;-63
2023/03/01 08:27:40;;;;;;;8.77;4.90;;;-0.30;99.90;;;;;;5042665;28;20213;-63
2023/03/01 08:30:10;;;;;;;11.27;5.30;;;-0.20;99.90;;;;;;5024686;28;20210;-63
2023/03/01 08:32:38;;;;;;;7.60;5.30;;;-0.10;99.90;;;;;;5046226;28;20287;-63
2023/03/01 08:35:06;;;;;;;10.77;5.63;;;-0.10;99.90;;;;;;5045934;28;20197;-63
2023/03/01 08:37:33;;;;;;;7.13;5.10;;;0.00;99.90;;;;;;5034898;28;20210;-63
2023/03/01 08:40:00;;;;;;;8.20;5.00;;;0.00;99.90;;;;;;5032881;28;20192;-63
2023/03/01 08:42:27;;;;;;;8.10;5.10;;;0.10;99.90;;;;;;5043289;28;20219;-63
2023/03/01 08:44:53;;;;;;;12.87;5.40;;;0.20;99.90;;;;;;5035249;28;20213;-63
2023/03/01 08:47:21;;;;;;;11.83;5.93;;;0.30;99.90;;;;;;5012832;28;20223;-63
2023/03/01 08:49:50;;;;;;;10.97;5.20;;;0.10;99.90;;;;;;5046902;28;20205;-63
2023/03/01 08:52:17;;;;;;;7.33;4.97;;;0.50;99.90;;;;;;5032048;28;20206;-63
2023/03/01 08:54:44;;;;;;;7.00;5.13;;;0.50;99.90;;;;;;5046005;28;20205;-63
2023/03/01 08:57:11;;;;;;;6.43;5.07;;;0.60;99.90;;;;;;5034601;28;20227;-63
2023/03/01 08:59:38;;;;;;;6.27;5.33;;;0.70;99.90;;;;;;5045307;28;20207;-63
2023/03/01 09:02:05;;;;;;;16.40;5.33;;;0.80;99.90;;;;;;5000957;28;20226;-63
2023/03/01 09:04:33;;;;;;;9.10;5.47;;;0.90;99.90;;;;;;5043101;28;20208;-64
2023/03/01 09:07:00;;;;;;;9.63;6.20;;;0.90;99.90;;;;;;5032395;28;20895;-63
2023/03/01 09:09:27;;;;;;;10.00;6.40;;;1.00;99.90;;;;;;5043957;28;20746;-63
2023/03/01 09:11:53;;;;;;;11.43;6.50;;;1.00;99.90;;;;;;5036745;28;21367;-63
2023/03/01 09:14:20;;;;;;;10.43;6.03;;;1.10;99.90;;;;;;5045096;28;20201;-63
2023/03/01 09:16:47;;;;;;;8.37;5.60;;;1.20;99.90;;;;;;5038468;28;20207;-63
2023/03/01 09:19:14;;;;;;;8.37;5.50;;;1.30;99.90;;;;;;5009284;28;20691;-63
2023/03/01 09:21:52;;;;;;;8.77;5.83;;;1.40;99.90;;;;;;5040671;28;20230;-63
2023/03/01 09:24:21;;;;;;;9.20;6.07;;;1.50;99.90;;;;;;5028354;28;20203;-64
2023/03/01 09:26:48;;;;;;;12.70;6.13;;;1.50;99.90;;;;;;5035155;28;20208;-63
2023/03/01 09:29:16;;;;;;;13.40;5.97;;;1.50;99.90;;;;;;5045001;28;20200;-63
2023/03/01 09:31:43;;;;;;;8.17;5.97;;;1.60;99.90;;;;;;5034093;28;20227;-63
2023/03/01 09:34:10;;;;;;;7.97;6.00;;;1.60;99.90;;;;;;5009063;28;21554;-63
2023/03/01 09:36:38;;;;;;;6.70;5.43;;;1.70;99.90;;;;;;5045299;28;20200;-63
2023/03/01 09:39:06;;;;;;;11.80;6.60;;;1.80;99.90;;;;;;5030704;28;20199;-64
2023/03/01 09:41:48;;;;;;;8.70;6.43;;;1.80;99.90;;;;;;5045365;28;20220;-63
2023/03/01 09:44:26;;;;;;;11.07;6.50;;;1.80;99.90;;;;;;5034497;28;20293;-63
2023/03/01 09:46:54;;;;;;;12.33;6.97;;;1.90;99.90;;;;;;5037351;28;20200;-63
2023/03/01 09:49:23;;;;;;;11.57;7.57;;;1.90;99.90;;;;;;5015636;28;20329;-63
2023/03/01 09:51:58;;;;;;;10.50;7.23;;;2.00;99.90;;;;;;5044637;28;20232;-63
2023/03/01 09:54:26;;;;;;;20.87;7.67;;;2.00;99.90;;;;;;5034967;28;20199;-63
2023/03/01 09:57:05;;;;;;;9.00;6.67;;;2.10;99.90;;;;;;5049295;28;20231;-63
2023/03/01 09:59:40;;;;;;;12.63;7.60;;;2.10;99.90;;;;;;5047867;28;20500;-63
2023/03/01 10:02:25;;;;;;;16.07;7.50;;;2.10;99.90;;;;;;5034131;28;20261;-63
2023/03/01 10:04:53;;;;;;;10.80;6.80;;;2.20;99.90;;;;;;5017489;28;20747;-63
2023/03/01 10:07:31;;;;;;;10.70;6.33;;;2.30;99.90;;;;;;5044724;28;20225;-64
2023/03/01 10:10:00;;;;;;;12.90;7.27;;;2.30;99.90;;;;;;5037974;28;20203;-63
2023/03/01 10:12:31;;;;;;;8.83;6.73;;;2.40;99.90;;;;;;5035322;28;21042;-63
2023/03/01 10:15:04;;;;;;;13.17;7.57;;;2.50;99.90;;;;;;5044130;28;21192;-63
2023/03/01 10:17:36;;;;;;;13.23;7.90;;;2.60;99.90;;;;;;5036188;28;20208;-63
2023/03/01 10:20:20;;;;;;;8.80;6.73;;;2.60;99.90;;;;;;5017035;28;20212;-63
2023/03/01 10:22:50;;;;;;;12.83;7.77;;;2.70;99.90;;;;;;5041903;28;20238;-64
2023/03/01 10:25:28;;;;;;;15.37;8.10;;;2.80;99.90;;;;;;5037852;28;20209;-63
2023/03/01 10:28:01;;;;;;;12.83;8.00;;;2.90;99.90;;;;;;5034300;28;21570;-63
2023/03/01 10:30:38;;;;;;;14.13;7.70;;;3.00;99.90;;;;;;5046026;28;20201;-64
2023/03/01 10:33:18;;;;;;;15.87;8.50;;;3.10;99.90;;;;;;5035136;28;20228;-63
2023/03/01 10:35:45;;;;;;;15.57;8.43;;;3.20;99.90;;;;;;5013903;28;20210;-64
2023/03/01 10:38:14;;;;;;;16.77;8.50;;;3.30;99.90;;;;;;5046362;28;20216;-63
2023/03/01 10:40:54;;;;;;;15.60;8.87;;;3.40;99.90;;;;;;5031377;28;20210;-63
2023/03/01 10:43:22;;;;;;;16.87;9.27;;;3.50;99.90;;;;;;5034379;28;20216;-64
2023/03/01 10:45:49;;;;;;;14.17;9.03;;;3.60;99.90;;;;;;5043994;28;20900;-64
2023/03/01 10:48:19;;;;;;;16.17;9.20;;;3.70;99.90;;;;;;5044921;28;20217;-63
2023/03/01 10:50:47;;;;;;;14.47;8.87;;;3.70;99.90;;;;;;5005399;28;20213;-64
2023/03/01 10:53:26;;;;;;;15.30;9.87;;;3.80;99.90;;;;;;5047664;28;20204;-63
2023/03/01 10:56:01;;;;;;;13.30;8.97;;;3.90;99.90;;;;;;5043338;28;20197;-64
2023/03/01 10:58:29;;;;;;;15.03;9.20;;;4.00;99.90;;;;;;5022230;28;20204;-64
2023/03/01 11:00:57;;;;;;;15.20;8.80;;;4.10;99.90;;;;;;5048279;28;20197;-63
2023/03/01 11:03:26;;;;;;;14.03;8.53;;;4.20;99.90;;;;;;5040911;28;20205;-63
2023/03/01 11:06:20;;;;;;;16.30;9.33;;;4.20;99.90;;;;;;5038017;28;20205;-63
2023/03/01 11:08:48;;;;;;;14.87;8.73;;;4.30;99.90;;;;;;5025571;28;20345;-64
2023/03/01 11:11:31;;;;;;;15.83;9.03;;;4.40;99.90;;;;;;5043465;28;20232;-64
2023/03/01 11:14:00;;;;;;;16.37;8.67;;;4.50;99.90;;;;;;5026558;28;20769;-63
2023/03/01 11:16:31;;;;;;;13.50;8.50;;;4.50;99.90;;;;;;5047466;28;20194;-63
2023/03/01 11:19:00;;;;;;;14.70;8.70;;;4.70;99.90;;;;;;5050031;28;20197;-63
2023/03/01 11:21:31;;;;;;;13.97;8.60;;;4.60;99.90;;;;;;5015187;28;21079;-64
2023/03/01 11:24:01;;;;;;;13.57;9.10;;;4.70;99.90;;;;;;5039849;28;20612;-64
2023/03/01 11:26:31;;;;;;;10.47;7.30;;;4.70;99.90;;;;;;5046786;28;20200;-64
2023/03/01 11:29:05;;;;;;;15.77;8.80;;;4.80;99.90;;;;;;5035713;28;20204;-64
2023/03/01 11:31:32;;;;;;;12.70;7.90;;;4.80;99.90;;;;;;5044010;28;20205;-64
2023/03/01 11:34:06;;;;;;;15.33;8.37;;;4.90;99.90;;;;;;5049289;28;20197;-64
2023/03/01 11:36:37;;;;;;;19.23;9.33;;;5.00;99.90;;;;;;5046490;28;20220;-64
2023/03/01 11:39:11;;;;;;;13.80;8.70;;;4.90;99.90;;;;;;5017584;28;20220;-64
2023/03/01 11:41:41;;;;;;;21.70;12.53;;;5.00;99.90;;;;;;5043665;28;20232;-64
2023/03/01 11:44:17;;;;;;;15.43;9.63;;;5.00;99.90;;;;;;5033285;28;20201;-64
2023/03/01 11:47:07;;;;;;;13.23;8.67;;;4.90;99.90;;;;;;5043472;28;20204;-64
2023/03/01 11:49:49;;;;;;;12.97;8.40;;;5.00;99.90;;;;;;5040726;28;20209;-64
2023/03/01 11:52:25;;;;;;;11.57;8.47;;;5.00;99.90;;;;;;5032262;28;21138;-64
2023/03/01 11:55:18;;;;;;;11.67;8.00;;;5.10;99.90;;;;;;5010658;28;20215;-64
2023/03/01 11:58:05;;;;;;;11.70;7.83;;;5.20;99.90;;;;;;5007040;28;21068;-64
2023/03/01 12:00:48;;;;;;;12.33;8.83;;;5.40;99.90;;;;;;5011624;28;20208;-64
2023/03/01 12:03:29;;;;;;;13.93;8.57;;;5.50;99.90;;;;;;5029935;28;20926;-64
2023/03/01 12:06:32;;;;;;;12.40;7.77;;;5.50;99.90;;;;;;5031559;28;20556;-63
2023/03/01 12:09:14;;;;;;;12.60;8.80;;;5.40;99.90;;;;;;5006554;28;20291;-64
2023/03/01 12:11:54;;;;;;;14.10;8.97;;;5.60;99.90;;;;;;5038530;28;20220;-64
2023/03/01 12:14:55;;;;;;;16.10;9.53;;;5.60;99.90;;;;;;5028413;28;20203;-65
2023/03/01 12:17:55;;;;;;;13.73;9.60;;;5.60;99.90;;;;;;4996175;28;20209;-64
2023/03/01 12:20:32;;;;;;;15.50;9.13;;;5.70;99.90;;;;;;5018576;28;20805;-64
2023/03/01 12:23:18;;;;;;;14.80;9.53;;;5.70;99.90;;;;;;5040377;28;20230;-64
2023/03/01 12:25:50;;;;;;;14.23;9.77;;;5.70;99.90;;;;;;5030718;28;20205;-64
2023/03/01 12:28:38;;;;;;;13.37;8.67;;;5.80;99.90;;;;;;5028274;28;20216;-64
2023/03/01 12:31:31;;;;;;;13.17;8.53;;;5.80;99.90;;;;;;5032466;28;20216;-63
2023/03/01 12:34:09;;;;;;;16.23;9.10;;;5.90;99.90;;;;;;5024668;28;20201;-63
2023/03/01 12:36:54;;;;;;;16.63;10.33;;;5.90;99.90;;;;;;5029255;28;20299;-64
2023/03/01 12:39:39;;;;;;;15.27;9.47;;;5.90;99.90;;;;;;5014486;28;20536;-64
2023/03/01 12:42:15;;;;;;;14.60;10.07;;;5.90;99.90;;;;;;5033904;28;20226;-64
2023/03/01 12:44:58;;;;;;;16.00;9.27;;;5.80;99.90;;;;;;5027647;28;20542;-64
2023/03/01 12:47:44;;;;;;;15.10;10.43;;;5.90;99.90;;;;;;5008187;28;21955;-64
2023/03/01 12:50:17;;;;;;;16.77;9.60;;;5.90;99.90;;;;;;5025860;28;20237;-64
2023/03/01 12:52:50;;;;;;;16.00;9.87;;;6.00;99.90;;;;;;5038929;28;20217;-64
2023/03/01 12:55:27;;;;;;;15.73;10.50;;;6.10;99.90;;;;;;5029582;28;20208;-64
2023/03/01 12:58:03;;;;;;;16.40;10.73;;;6.10;99.90;;;;;;5024861;28;20607;-63
2023/03/01 13:00:37;;;;;;;18.93;11.40;;;6.00;99.90;;;;;;5022888;28;21004;-64